Data for 01/22/2013

Time Sea-Level Adjusted Pressure Absolute Pressure Temperature Relative Humidity Dew Point   
(mb) (inHg) (mb) (inHg) (C) (F) (%) (C) (F)
09:05 1020 30.12 850 25.1 -5 23.1 44 -15.4 4.3
09:10 1020 30.12 850 25.1 -4.9 23.2 42 -15.9 3.5
09:15 1021 30.15 850 25.1 -4.8 23.4 42 -15.8 3.6
09:20 1021 30.15 850 25.1 -4.9 23.3 42 -15.8 3.6
09:25 1021 30.15 850 25.1 -4.2 24.5 40 -16 3.2
09:30 1021 30.15 850 25.1 -4.1 24.7 40 -15.8 3.5
09:35 1021 30.15 850 25.1 -4 24.8 39 -16.1 2.9
09:40 1021 30.15 850 25.1 -4.2 24.5 40 -15.9 3.4
09:45 1021 30.15 850 25.1 -4.6 23.7 41 -15.9 3.4
09:50 1021 30.15 850 25.1 -4.6 23.7 41 -16 3.1
09:55 1021 30.15 850 25.1 -4.4 24.1 40 -16.1 3
10:00 1021 30.15 850 25.1 -3.9 24.9 38 -16.2 2.8
10:05 1021 30.15 850 25.1 -4.2 24.4 39 -16.2 2.8
10:10 1021 30.15 850 25.1 -3.8 25.1 37 -16.4 2.5
10:15 1021 30.15 850 25.1 -3.4 25.8 37 -16.3 2.6
10:20 1021 30.15 850 25.1 -3.1 26.4 36 -16.4 2.6
10:25 1021 30.15 850 25.1 -2.5 27.4 35 -16.1 3
10:30 1021 30.15 851 25.13 -2.6 27.4 36 -15.6 3.9
10:35 1021 30.15 851 25.13 -3.2 26.3 36 -16.1 3
10:40 1021 30.15 851 25.13 -2.5 27.6 37 -15.4 4.2
10:45 1022 30.18 851 25.13 -1.6 29.2 33 -16 3.3
10:50 1022 30.18 851 25.13 -1.3 29.7 33 -15.6 3.9
10:55 1022 30.18 851 25.13 -1.4 29.6 33 -15.7 3.7
11:00 1022 30.18 851 25.13 -1.2 29.8 33 -15.5 4.2
11:05 1022 30.18 851 25.13 -1 30.2 33 -15.4 4.3
11:10 1022 30.18 851 25.13 -0.3 31.5 32 -15.2 4.7
11:15 1022 30.18 851 25.13 0.1 32.2 31 -15.3 4.5
11:20 1022 30.18 851 25.13 0.3 32.5 30 -15.3 4.5
11:25 1022 30.18 851 25.13 0.3 32.5 32 -14.5 5.9
11:30 1022 30.18 851 25.13 0.4 32.8 33 -14.2 6.5
11:35 1022 30.18 851 25.13 0.7 33.3 30 -14.8 5.4
11:40 1022 30.18 851 25.13 0.9 33.6 29 -15.4 4.3
11:45 1022 30.18 851 25.13 0.9 33.7 29 -15 4.9
11:50 1022 30.18 851 25.13 1.8 35.2 28 -14.9 5.2
11:55 1022 30.18 851 25.13 2.3 36.1 29 -14.2 6.5
12:00 1022 30.18 851 25.13 1.9 35.5 30 -13.8 7.2
12:05 1022 30.18 851 25.13 1.7 35.1 31 -13.6 7.6
12:10 1022 30.18 851 25.13 1.8 35.2 30 -14.1 6.7
12:15 1022 30.18 851 25.13 1.7 35 32 -13.5 7.7
12:20 1022 30.18 851 25.13 1.7 35.1 32 -13.5 7.7
12:25 1022 30.18 851 25.13 2 35.7 32 -13 8.5
12:30 1022 30.18 851 25.13 1.1 34 35 -12.6 9.3
12:35 1022 30.18 851 25.13 1 33.7 35 -12.9 8.8
12:40 1022 30.18 851 25.13 1.1 34 34 -13.2 8.3
12:45 1022 30.18 851 25.13 1.9 35.5 34 -12.5 9.5
12:50 1022 30.18 851 25.13 2.9 37.2 32 -12.4 9.7
12:55 1022 30.18 851 25.13 3.3 38 30 -12.6 9.3
13:00 1022 30.18 851 25.13 3.1 37.6 32 -12 10.4
13:05 1022 30.18 851 25.13 2.8 37.1 32 -12.2 10.1
13:10 1022 30.18 851 25.13 3 37.4 33 -11.9 10.5
13:15 1022 30.18 851 25.13 3.3 38 31 -12.3 9.9
13:20 1022 30.18 851 25.13 3.1 37.6 32 -12.1 10.3
13:25 1022 30.18 851 25.13 3.2 37.8 32 -12 10.4
13:30 1022 30.18 851 25.13 3.1 37.6 32 -12 10.5
13:35 1022 30.18 851 25.13 2.9 37.3 34 -11.6 11.1
13:40 1022 30.18 851 25.13 2.6 36.8 34 -11.5 11.2
13:45 1022 30.18 851 25.13 2.4 36.3 34 -11.9 10.5
13:50 1022 30.18 851 25.13 2.3 36.1 35 -11.7 11
13:55 1022 30.18 851 25.13 2.2 35.9 35 -11.8 10.7
14:00 1021 30.15 851 25.13 2.3 36.2 34 -12.2 10.1
14:05 1021 30.15 850 25.1 2.6 36.6 33 -12.2 10
14:10 1021 30.15 850 25.1 2.9 37.2 34 -11.4 11.5
14:15 1021 30.15 850 25.1 3.3 38 33 -11.4 11.5
14:20 1021 30.15 850 25.1 3.7 38.6 32 -11.7 10.9
14:25 1021 30.15 850 25.1 3.2 37.7 32 -12.1 10.2
14:30 1021 30.15 850 25.1 3.4 38 31 -12.4 9.8
14:35 1021 30.15 850 25.1 2.9 37.3 32 -12.1 10.1
14:40 1021 30.15 850 25.1 3.1 37.6 32 -12.2 10
14:45 1021 30.15 850 25.1 3.1 37.5 32 -11.9 10.5
14:50 1021 30.15 850 25.1 3.5 38.3 30 -12.4 9.6
14:55 1021 30.15 850 25.1 4.1 39.3 29 -12.5 9.5
15:00 1021 30.15 850 25.1 4.3 39.7 29 -12.2 10
15:05 1021 30.15 850 25.1 4.5 40.1 29 -12.2 10.1
15:10 1021 30.15 850 25.1 4.3 39.8 31 -11.4 11.5
15:15 1021 30.15 850 25.1 4.2 39.5 31 -11.5 11.3
15:20 1021 30.15 850 25.1 4.2 39.5 32 -11 12.1
15:25 1021 30.15 850 25.1 3.9 39 36 -9.9 14.1
15:30 1021 30.15 850 25.1 2.5 36.5 41 -9.4 15
15:35 1021 30.15 850 25.1 1.6 35 44 -9.4 15.1
15:40 1021 30.15 850 25.1 1.8 35.2 41 -10.3 13.5
15:45 1021 30.15 850 25.1 2.5 36.4 39 -10.3 13.5
15:50 1021 30.15 850 25.1 2.9 37.1 38 -10 14
15:55 1021 30.15 850 25.1 2.5 36.5 39 -10 14.1
16:00 1021 30.15 850 25.1 2.6 36.7 40 -9.6 14.7
16:05 1021 30.15 850 25.1 2.2 36 41 -9.6 14.7
16:10 1021 30.15 850 25.1 2.1 35.9 40 -10 13.9
16:15 1020 30.12 850 25.1 2.1 35.8 40 -10.2 13.7
16:20 1020 30.12 850 25.1 2.1 35.7 41 -9.8 14.3
16:25 1020 30.12 850 25.1 2 35.6 42 -9.7 14.6
16:30 1020 30.12 850 25.1 2 35.6 42 -9.5 14.9
16:35 1020 30.12 850 25.1 2.2 36 42 -9.5 14.9
16:40 1020 30.12 850 25.1 2.1 35.8 43 -9.3 15.3
16:45 1020 30.12 849 25.07 1.7 35.1 43 -9.5 14.9
16:50 1020 30.12 849 25.07 1.1 34 46 -9.3 15.2
16:55 1020 30.12 849 25.07 1.1 34 45 -9.7 14.6
17:00 1020 30.12 849 25.07 1.2 34.2 44 -9.7 14.5
17:05 1020 30.12 849 25.07 1.3 34.4 45 -9.2 15.4
17:10 1020 30.12 849 25.07 1.3 34.4 46 -9.1 15.7
17:15 1020 30.12 849 25.07 1.1 34 46 -9.2 15.4
17:20 1020 30.12 849 25.07 1 33.8 47 -9 15.7
17:25 1020 30.12 849 25.07 0.7 33.2 48 -9.1 15.5
17:30 1020 30.12 849 25.07 0.4 32.7 49 -9.1 15.6
17:35 1020 30.12 849 25.07 0.7 33.2 48 -9.2 15.4
17:40 1020 30.12 849 25.07 0.7 33.3 48 -9 15.8
17:45 1020 30.12 849 25.07 0.7 33.2 49 -8.8 16.2
17:50 1020 30.12 849 25.07 0.5 32.8 50 -8.9 16.1
17:55 1020 30.12 849 25.07 0.3 32.5 51 -8.8 16.1
18:00 1020 30.12 849 25.07 0.2 32.3 51 -8.9 16.1
18:05 1020 30.12 849 25.07 0 32 51 -8.9 15.9
18:10 1020 30.12 849 25.07 -0.1 31.9 49 -9.6 14.8
18:15 1020 30.12 849 25.07 -0.2 31.6 49 -9.6 14.7
18:20 1020 30.12 849 25.07 -0.3 31.4 49 -9.8 14.4
18:25 1020 30.12 849 25.07 -0.3 31.4 48 -10.1 13.9
18:30 1020 30.12 849 25.07 -0.5 31.1 46 -10.6 12.9
18:35 1020 30.12 849 25.07 -0.6 30.9 48 -10.3 13.5
18:40 1020 30.12 849 25.07 -0.6 31 48 -10.3 13.5
18:45 1020 30.12 849 25.07 -0.6 30.9 50 -9.8 14.4
18:50 1020 30.12 849 25.07 -1 30.1 52 -9.8 14.4
18:55 1020 30.12 849 25.07 -1.2 29.8 48 -10.8 12.6
19:00 1020 30.12 849 25.07 -1.1 30.1 52 -9.8 14.3
19:05 1020 30.12 849 25.07 -1.1 30 48 -10.9 12.4
19:10 1020 30.12 849 25.07 -1.2 29.8 53 -9.7 14.5
19:15 1020 30.12 849 25.07 -1.2 29.8 49 -10.7 12.8
19:20 1020 30.12 849 25.07 -1.1 30 49 -10.6 12.9
19:25 1020 30.12 849 25.07 -0.8 30.5 46 -11.1 12
19:30 1020 30.12 849 25.07 -0.6 30.9 48 -10.3 13.5
19:35 1020 30.12 849 25.07 -0.8 30.6 48 -10.5 13.1
19:40 1020 30.12 849 25.07 -0.8 30.5 47 -10.8 12.5
19:45 1020 30.12 849 25.07 -0.9 30.5 48 -10.5 13.1
19:50 1020 30.12 849 25.07 -0.9 30.3 45 -11.4 11.5
19:55 1020 30.12 849 25.07 -1.1 30.1 48 -10.6 12.9
20:00 1020 30.12 849 25.07 -1.4 29.5 49 -10.9 12.4
20:05 1020 30.12 849 25.07 -1.4 29.5 47 -11.3 11.7
20:10 1020 30.12 849 25.07 -1.1 29.9 44 -11.8 10.8
20:15 1020 30.12 849 25.07 -1 30.1 44 -11.8 10.7
20:20 1020 30.12 849 25.07 -1.1 30 43 -12.1 10.3
20:25 1020 30.12 849 25.07 -1.1 30 44 -11.9 10.6
20:30 1020 30.12 849 25.07 -1.1 29.9 39 -13.4 7.9
20:35 1020 30.12 849 25.07 -0.5 31.1 38 -13.1 8.5
20:40 1020 30.12 849 25.07 -0.4 31.4 40 -12.4 9.8
20:45 1020 30.12 849 25.07 -0.6 30.9 40 -12.7 9.1
20:50 1020 30.12 849 25.07 -0.3 31.4 40 -12.4 9.7
20:55 1020 30.12 849 25.07 -0.3 31.4 43 -11.4 11.5
21:00 1020 30.12 849 25.07 -0.3 31.5 41 -12.1 10.3
21:05 1020 30.12 849 25.07 -0.1 31.8 41 -12 10.5
21:10 1020 30.12 849 25.07 0.2 32.3 41 -11.7 10.9
21:15 1019 30.09 849 25.07 0.3 32.5 43 -11 12.3
21:20 1019 30.09 849 25.07 -0 32 39 -12.3 9.9
21:25 1019 30.09 849 25.07 -0 32 39 -12.5 9.4
21:30 1019 30.09 849 25.07 0.1 32.2 41 -11.6 11.1
21:35 1019 30.09 849 25.07 0.1 32.3 43 -10.9 12.3
21:40 1019 30.09 849 25.07 -0 32 43 -11.1 12
21:45 1019 30.09 849 25.07 -0.1 31.9 43 -11.3 11.7
21:50 1019 30.09 849 25.07 -0.1 31.7 44 -11.1 12.1
21:55 1019 30.09 849 25.07 -0.3 31.4 41 -12.2 10.1
22:00 1019 30.09 849 25.07 -0.2 31.6 42 -11.6 11.1
22:05 1019 30.09 849 25.07 -0.3 31.4 42 -11.9 10.6
22:10 1019 30.09 849 25.07 -0.3 31.5 44 -11.2 11.8
22:15 1020 30.12 849 25.07 -0.1 31.9 43 -11.3 11.7
22:20 1020 30.12 849 25.07 -0 31.9 41 -11.9 10.5
22:25 1020 30.12 849 25.07 -0 31.9 43 -11.2 11.8
22:30 1020 30.12 849 25.07 -0.2 31.7 45 -10.7 12.7
22:35 1020 30.12 849 25.07 -0.5 31.1 44 -11.4 11.5
22:40 1020 30.12 849 25.07 -0.8 30.5 44 -11.6 11.1
22:45 1020 30.12 849 25.07 -0.7 30.8 44 -11.6 11.2
22:50 1020 30.12 849 25.07 -0.5 31 43 -11.5 11.2
22:55 1020 30.12 849 25.07 -0.5 31.2 43 -11.6 11
23:00 1020 30.12 849 25.07 -0.5 31.2 44 -11.3 11.7
23:05 1020 30.12 849 25.07 -0.6 31 45 -11.1 12.1
23:10 1020 30.12 849 25.07 -0.9 30.4 49 -10.2 13.6
23:15 1020 30.12 849 25.07 -1.3 29.7 49 -10.6 13
23:20 1020 30.12 849 25.07 -1.6 29.2 48 -11.2 11.8
23:25 1020 30.12 849 25.07 -1.3 29.6 46 -11.6 11.2
23:30 1020 30.12 849 25.07 -1.2 29.9 45 -11.7 11
23:35 1020 30.12 849 25.07 -1 30.2 46 -11.2 11.8
23:40 1020 30.12 849 25.07 -1.2 29.8 47 -11.3 11.7
23:45 1020 30.12 849 25.07 -1.2 29.9 46 -11.3 11.6
23:50 1020 30.12 849 25.07 -1 30.2 46 -11.2 11.8
23:55 1020 30.12 849 25.07 -0.8 30.6 46 -11.2 11.9
24:00 1020 30.12 849 25.07 -0.7 30.7 44 -11.7 11